createdAt,value
2022-10-06T00:00:25.964Z,28.72
2022-10-06T00:01:26.048Z,28.63
2022-10-06T00:02:26.048Z,28.63
2022-10-06T00:03:25.962Z,28.63
2022-10-06T00:04:25.963Z,28.63
2022-10-06T00:05:25.963Z,28.63
2022-10-06T00:06:25.986Z,28.63
2022-10-06T00:07:25.962Z,28.63
2022-10-06T00:08:26.423Z,28.53
2022-10-06T00:09:25.961Z,28.53
2022-10-06T00:10:25.963Z,28.53
2022-10-06T00:11:25.961Z,28.53
2022-10-06T00:12:25.963Z,29.01
2022-10-06T00:13:25.961Z,28.63
2022-10-06T00:14:25.962Z,28.53
2022-10-06T00:15:25.963Z,28.53
2022-10-06T00:16:25.963Z,29.21
2022-10-06T00:17:25.962Z,28.43
2022-10-06T00:18:26.295Z,29.21
2022-10-06T00:19:25.961Z,28.43
2022-10-06T00:20:25.966Z,28.72
2022-10-06T00:21:25.963Z,29.21
2022-10-06T00:22:25.983Z,29.01
2022-10-06T00:23:25.963Z,29.01
2022-10-06T00:24:25.960Z,28.91
2022-10-06T00:25:25.962Z,28.91
2022-10-06T00:26:25.962Z,28.91
2022-10-06T00:27:25.962Z,29.01
2022-10-06T00:28:26.583Z,29.01
2022-10-06T00:29:25.961Z,29.01
2022-10-06T00:30:25.962Z,29.01
2022-10-06T00:31:26.033Z,28.91
2022-10-06T00:32:25.960Z,28.91
2022-10-06T00:33:25.962Z,28.91
2022-10-06T00:34:25.960Z,29.01
2022-10-06T00:35:25.962Z,28.91
2022-10-06T00:36:25.961Z,28.91
2022-10-06T00:37:25.962Z,28.91
2022-10-06T00:38:26.507Z,28.91
2022-10-06T00:39:25.961Z,29.01
2022-10-06T00:40:25.959Z,28.91
2022-10-06T00:41:25.961Z,28.91
2022-10-06T00:42:25.961Z,28.91
2022-10-06T00:43:25.961Z,28.91
2022-10-06T00:44:25.961Z,28.81
2022-10-06T00:45:25.961Z,28.81
2022-10-06T00:46:25.979Z,28.81
2022-10-06T00:47:25.961Z,28.81
2022-10-06T00:48:26.437Z,28.81
2022-10-06T00:49:25.960Z,28.91
2022-10-06T00:50:25.961Z,28.91
2022-10-06T00:51:25.961Z,28.81
2022-10-06T00:52:25.961Z,28.91
2022-10-06T00:53:25.961Z,28.72
2022-10-06T00:54:25.980Z,28.81
2022-10-06T00:55:25.979Z,28.81
2022-10-06T00:56:25.958Z,28.81
2022-10-06T00:57:25.960Z,28.81
2022-10-06T00:58:26.422Z,28.72
2022-10-06T00:59:25.961Z,28.81
2022-10-06T01:00:25.958Z,28.91
2022-10-06T01:01:26.019Z,29.11
2022-10-06T01:02:26.043Z,29.01
2022-10-06T01:03:25.961Z,29.11
2022-10-06T01:04:25.962Z,29.21
2022-10-06T01:05:25.959Z,29.21
2022-10-06T01:06:25.957Z,29.01
2022-10-06T01:07:25.960Z,29.21
2022-10-06T01:08:26.512Z,29.21
2022-10-06T01:09:25.960Z,29.01
2022-10-06T01:10:25.980Z,29.01
2022-10-06T01:11:25.960Z,29.21
2022-10-06T01:12:25.960Z,29.01
2022-10-06T01:13:25.960Z,29.01
2022-10-06T01:14:25.958Z,29.11
2022-10-06T01:15:25.959Z,29.01
2022-10-06T01:16:25.957Z,29.21
2022-10-06T01:17:27.460Z,29.01
2022-10-06T01:18:26.364Z,29.01
2022-10-06T01:19:25.959Z,29.01
2022-10-06T01:20:25.961Z,29.01
2022-10-06T01:21:25.958Z,29.11
2022-10-06T01:22:25.959Z,29.01
2022-10-06T01:23:26.109Z,29.01
2022-10-06T01:24:25.958Z,29.21
2022-10-06T01:25:25.959Z,29.21
2022-10-06T01:26:25.977Z,29.11
2022-10-06T01:27:25.958Z,29.11
2022-10-06T01:28:26.552Z,29.11
2022-10-06T01:29:25.958Z,29.40
2022-10-06T01:30:25.958Z,29.21
2022-10-06T01:31:26.003Z,29.30
2022-10-06T01:32:25.958Z,29.11
2022-10-06T01:33:25.957Z,29.11
2022-10-06T01:34:25.957Z,29.30
2022-10-06T01:35:25.960Z,29.30
2022-10-06T01:36:25.957Z,29.21
2022-10-06T01:37:25.958Z,29.21
2022-10-06T01:38:26.385Z,29.30
2022-10-06T01:39:25.960Z,29.21
2022-10-06T01:40:25.957Z,29.21
2022-10-06T01:41:25.957Z,29.21
2022-10-06T01:42:25.977Z,29.21
2022-10-06T01:43:25.957Z,29.30
2022-10-06T01:44:25.955Z,29.30
2022-10-06T01:45:25.959Z,29.11
2022-10-06T01:46:26.051Z,29.30
2022-10-06T01:47:25.958Z,29.21
2022-10-06T01:48:26.500Z,29.30
2022-10-06T01:49:25.957Z,29.50
2022-10-06T01:50:25.955Z,29.30
2022-10-06T01:51:25.956Z,29.50
2022-10-06T01:52:25.956Z,29.60
2022-10-06T01:53:25.958Z,29.50
2022-10-06T01:54:25.954Z,29.21
2022-10-06T01:55:25.957Z,29.60
2022-10-06T01:56:25.955Z,29.79
2022-10-06T01:57:25.957Z,29.60
2022-10-06T01:58:26.528Z,29.40
2022-10-06T01:59:25.955Z,29.40
2022-10-06T02:00:25.959Z,29.40
2022-10-06T02:01:26.027Z,29.50
2022-10-06T02:02:25.955Z,29.50
2022-10-06T02:03:25.954Z,29.40
2022-10-06T02:04:26.029Z,29.60
2022-10-06T02:05:25.956Z,29.50
2022-10-06T02:06:26.047Z,29.60
2022-10-06T02:07:25.956Z,29.50
2022-10-06T02:08:26.412Z,29.60
2022-10-06T02:09:25.961Z,29.50
2022-10-06T02:10:25.953Z,29.60
2022-10-06T02:11:25.955Z,29.60
2022-10-06T02:12:25.954Z,29.79
2022-10-06T02:13:25.957Z,29.69
2022-10-06T02:14:25.977Z,29.69
2022-10-06T02:15:25.954Z,29.98
2022-10-06T02:16:26.007Z,30.08
2022-10-06T02:17:25.955Z,29.98
2022-10-06T02:18:26.469Z,29.98
2022-10-06T02:19:25.954Z,29.98
2022-10-06T02:20:25.953Z,29.88
2022-10-06T02:21:25.957Z,29.98
2022-10-06T02:22:25.954Z,29.98
2022-10-06T02:23:25.954Z,29.79
2022-10-06T02:24:26.103Z,29.69
2022-10-06T02:25:25.954Z,29.60
2022-10-06T02:26:25.953Z,29.60
2022-10-06T02:27:25.954Z,29.69
2022-10-06T02:28:26.322Z,29.79
2022-10-06T02:29:25.956Z,29.88
2022-10-06T02:30:25.975Z,29.88
2022-10-06T02:31:26.091Z,29.79
2022-10-06T02:32:25.953Z,29.79
2022-10-06T02:33:25.954Z,29.79
2022-10-06T02:34:25.953Z,29.69
2022-10-06T02:35:25.952Z,29.69
2022-10-06T02:36:25.952Z,29.60
2022-10-06T02:37:25.956Z,29.69
2022-10-06T02:38:26.340Z,29.98
2022-10-06T02:39:25.955Z,29.88
2022-10-06T02:40:25.956Z,29.69
2022-10-06T02:41:25.955Z,29.69
2022-10-06T02:42:25.951Z,29.88
2022-10-06T02:43:25.954Z,30.08
2022-10-06T02:44:25.953Z,30.18
2022-10-06T02:45:25.953Z,30.18
2022-10-06T02:46:26.025Z,30.18
2022-10-06T02:47:25.952Z,30.18
2022-10-06T02:48:26.448Z,29.69
2022-10-06T02:49:25.954Z,29.98
2022-10-06T02:50:25.952Z,30.08
2022-10-06T02:51:25.952Z,30.08
2022-10-06T02:52:25.952Z,30.18
2022-10-06T02:53:25.957Z,29.98
2022-10-06T02:54:25.952Z,30.08
2022-10-06T02:55:25.952Z,30.18
2022-10-06T02:56:25.951Z,30.18
2022-10-06T02:57:25.952Z,29.98
2022-10-06T02:58:26.476Z,29.98
2022-10-06T02:59:25.951Z,29.98
2022-10-06T03:00:25.951Z,30.08
2022-10-06T03:01:26.060Z,29.98
2022-10-06T03:02:26.114Z,30.08
2022-10-06T03:03:25.951Z,29.98
2022-10-06T03:04:25.952Z,30.08
2022-10-06T03:05:25.953Z,30.08
2022-10-06T03:06:25.952Z,30.08
2022-10-06T03:07:25.951Z,29.98
2022-10-06T03:08:26.401Z,29.98
2022-10-06T03:09:25.952Z,29.88
2022-10-06T03:10:25.950Z,29.69
2022-10-06T03:11:25.951Z,29.79
2022-10-06T03:12:25.949Z,29.69
2022-10-06T03:13:25.950Z,29.98
2022-10-06T03:14:25.949Z,29.79
2022-10-06T03:15:25.951Z,29.79
2022-10-06T03:16:26.033Z,29.98
2022-10-06T03:17:25.951Z,29.88
2022-10-06T03:18:26.569Z,29.88
2022-10-06T03:19:25.950Z,29.69
2022-10-06T03:20:25.950Z,29.98
2022-10-06T03:21:25.978Z,29.88
2022-10-06T03:22:25.948Z,29.79
2022-10-06T03:23:25.950Z,29.88
2022-10-06T03:24:25.951Z,29.88
2022-10-06T03:25:25.953Z,29.98
2022-10-06T03:26:25.952Z,29.98
2022-10-06T03:27:25.950Z,30.18
2022-10-06T03:28:26.469Z,30.27
2022-10-06T03:29:25.949Z,30.18
2022-10-06T03:30:25.948Z,30.27
2022-10-06T03:31:26.080Z,30.18
2022-10-06T03:32:25.950Z,30.08
2022-10-06T03:33:25.949Z,30.27
2022-10-06T03:34:25.967Z,30.08
2022-10-06T03:35:25.950Z,30.27
2022-10-06T03:36:25.949Z,30.18
2022-10-06T03:37:25.951Z,30.18
2022-10-06T03:38:26.376Z,30.18
2022-10-06T03:39:25.948Z,30.27
2022-10-06T03:40:25.947Z,30.18
2022-10-06T03:41:25.960Z,30.37
2022-10-06T03:42:25.951Z,30.27
2022-10-06T03:43:25.948Z,30.18
2022-10-06T03:44:25.947Z,30.27
2022-10-06T03:45:25.948Z,30.18
2022-10-06T03:46:26.051Z,29.98
2022-10-06T03:47:25.949Z,30.27
2022-10-06T03:48:26.237Z,30.27
2022-10-06T03:49:25.949Z,30.08
2022-10-06T03:50:25.968Z,30.08
2022-10-06T03:51:25.948Z,30.08
2022-10-06T03:52:26.288Z,30.37
2022-10-06T03:53:25.949Z,30.47
2022-10-06T03:54:25.949Z,30.27
2022-10-06T03:55:25.948Z,30.27
2022-10-06T03:56:25.950Z,30.18
2022-10-06T03:57:25.949Z,30.27
2022-10-06T03:58:26.238Z,30.27
2022-10-06T03:59:25.948Z,30.27
2022-10-06T04:00:25.952Z,30.27
2022-10-06T04:01:26.813Z,30.27
2022-10-06T04:02:25.996Z,29.98
2022-10-06T04:03:25.948Z,29.98
2022-10-06T04:04:25.947Z,29.88
2022-10-06T04:05:25.948Z,29.98
2022-10-06T04:06:26.085Z,30.18
2022-10-06T04:07:25.946Z,29.98
2022-10-06T04:08:26.326Z,30.27
2022-10-06T04:09:25.948Z,30.37
2022-10-06T04:10:25.945Z,30.08
2022-10-06T04:11:25.946Z,30.27
2022-10-06T04:12:25.945Z,30.27
2022-10-06T04:13:25.958Z,30.18
2022-10-06T04:14:25.945Z,30.27
2022-10-06T04:15:25.946Z,30.27
2022-10-06T04:16:26.044Z,30.37
2022-10-06T04:17:25.947Z,30.18
2022-10-06T04:18:26.069Z,30.18
2022-10-06T04:19:25.946Z,30.37
2022-10-06T04:20:25.946Z,30.47
2022-10-06T04:21:25.951Z,30.37
2022-10-06T04:22:25.966Z,30.57
2022-10-06T04:23:25.946Z,30.47
2022-10-06T04:24:25.946Z,30.47
2022-10-06T04:25:25.947Z,30.47
2022-10-06T04:26:25.944Z,30.47
2022-10-06T04:27:25.945Z,30.47
2022-10-06T04:28:26.206Z,30.37
2022-10-06T04:29:25.947Z,30.47
2022-10-06T04:30:25.946Z,30.76
2022-10-06T04:31:26.053Z,30.76
2022-10-06T04:32:25.944Z,30.47
2022-10-06T04:33:25.947Z,30.76
2022-10-06T04:34:25.945Z,31.05
2022-10-06T04:35:25.946Z,30.66
2022-10-06T04:36:25.945Z,30.66
2022-10-06T04:37:25.945Z,30.95
2022-10-06T04:38:26.177Z,30.66
2022-10-06T04:39:25.945Z,30.95
2022-10-06T04:40:25.946Z,30.85
2022-10-06T04:41:25.945Z,31.05
2022-10-06T04:42:25.944Z,30.85
2022-10-06T04:43:25.945Z,31.05
2022-10-06T04:44:25.944Z,30.85
2022-10-06T04:45:25.946Z,30.95
2022-10-06T04:46:43.662Z,30.95
2022-10-06T04:47:25.943Z,30.95
2022-10-06T04:48:26.263Z,30.85
2022-10-06T04:49:25.943Z,30.95
2022-10-06T04:50:25.944Z,30.85
2022-10-06T04:51:25.946Z,30.95
2022-10-06T04:52:25.944Z,30.85
2022-10-06T04:53:25.945Z,30.95
2022-10-06T04:54:30.055Z,30.85
2022-10-06T04:55:25.942Z,30.85
2022-10-06T04:56:25.945Z,30.85
2022-10-06T04:57:25.952Z,30.85
2022-10-06T04:58:26.239Z,30.85
2022-10-06T04:59:25.944Z,30.85
2022-10-06T05:00:25.943Z,30.85
2022-10-06T05:01:25.995Z,30.95
2022-10-06T05:02:26.008Z,30.95
2022-10-06T05:03:25.942Z,30.85
2022-10-06T05:04:25.944Z,30.95
2022-10-06T05:05:25.943Z,30.85
2022-10-06T05:06:25.944Z,30.85
2022-10-06T05:07:25.943Z,30.85
2022-10-06T05:08:26.225Z,30.95
2022-10-06T05:09:25.943Z,30.85
2022-10-06T05:10:25.965Z,30.85
2022-10-06T05:11:26.240Z,30.76
2022-10-06T05:12:25.945Z,30.76
2022-10-06T05:13:25.944Z,30.85
2022-10-06T05:14:25.943Z,30.85
2022-10-06T05:15:25.943Z,30.85
2022-10-06T05:16:26.016Z,30.76
2022-10-06T05:17:25.943Z,30.76
2022-10-06T05:18:26.446Z,30.76
2022-10-06T05:19:25.941Z,30.76
2022-10-06T05:20:25.943Z,30.85
2022-10-06T05:21:25.941Z,30.85
2022-10-06T05:22:25.943Z,30.66
2022-10-06T05:23:25.942Z,30.66
2022-10-06T05:24:25.942Z,30.85
2022-10-06T05:25:25.946Z,31.24
2022-10-06T05:26:25.961Z,30.85
2022-10-06T05:27:25.941Z,30.66
2022-10-06T05:28:26.356Z,31.15
2022-10-06T05:29:25.941Z,30.66
2022-10-06T05:30:25.942Z,30.95
2022-10-06T05:31:25.958Z,31.34
2022-10-06T05:32:25.942Z,31.24
2022-10-06T05:33:25.940Z,31.24
2022-10-06T05:34:25.940Z,30.66
2022-10-06T05:35:25.941Z,30.76
2022-10-06T05:36:25.945Z,31.24
2022-10-06T05:37:25.944Z,31.24
2022-10-06T05:38:26.318Z,31.05
2022-10-06T05:39:25.939Z,31.05
2022-10-06T05:40:25.942Z,31.05
2022-10-06T05:41:25.940Z,31.15
2022-10-06T05:42:29.540Z,31.05
2022-10-06T05:43:25.940Z,31.05
2022-10-06T05:44:25.942Z,31.15
2022-10-06T05:45:25.943Z,31.15
2022-10-06T05:46:25.940Z,31.15
2022-10-06T05:47:25.938Z,31.24
2022-10-06T05:48:26.390Z,31.05
2022-10-06T05:49:25.943Z,31.15
2022-10-06T05:50:25.940Z,31.15
2022-10-06T05:51:30.382Z,31.05
2022-10-06T05:52:25.940Z,31.15
2022-10-06T05:53:25.940Z,31.05
2022-10-06T05:54:25.940Z,31.15
2022-10-06T05:55:25.938Z,31.15
2022-10-06T05:56:25.940Z,31.15
2022-10-06T05:57:25.941Z,31.15
2022-10-06T05:58:25.961Z,31.05
2022-10-06T05:59:25.945Z,31.15
2022-10-06T06:00:25.940Z,31.05
2022-10-06T06:01:25.984Z,31.15
2022-10-06T06:02:26.025Z,30.66
2022-10-06T06:03:25.939Z,31.24
2022-10-06T06:04:25.944Z,31.24
2022-10-06T06:05:25.939Z,31.15
2022-10-06T06:06:25.938Z,30.66
2022-10-06T06:07:25.938Z,31.24
2022-10-06T06:08:26.452Z,31.05
2022-10-06T06:09:25.938Z,31.24
2022-10-06T06:10:25.941Z,31.05
2022-10-06T06:11:25.937Z,31.05
2022-10-06T06:12:25.944Z,31.05
2022-10-06T06:13:25.942Z,31.15
2022-10-06T06:14:25.959Z,31.15
2022-10-06T06:15:25.938Z,31.15
2022-10-06T06:16:25.999Z,31.15
2022-10-06T06:17:25.939Z,31.05
2022-10-06T06:18:26.238Z,31.15
2022-10-06T06:19:29.081Z,31.15
2022-10-06T06:20:25.939Z,31.05
2022-10-06T06:21:25.938Z,31.05
2022-10-06T06:22:25.937Z,31.05
2022-10-06T06:23:25.937Z,31.15
2022-10-06T06:24:25.938Z,31.05
2022-10-06T06:25:25.938Z,31.05
2022-10-06T06:26:25.938Z,31.05
2022-10-06T06:27:25.936Z,31.15
2022-10-06T06:28:26.042Z,31.15
2022-10-06T06:29:25.937Z,31.15
2022-10-06T06:30:26.155Z,31.05
2022-10-06T06:31:26.002Z,31.15
2022-10-06T06:32:25.937Z,31.15
2022-10-06T06:33:25.937Z,31.15
2022-10-06T06:34:25.937Z,31.05
2022-10-06T06:35:25.938Z,31.15
2022-10-06T06:36:25.941Z,31.05
2022-10-06T06:37:25.936Z,31.05
2022-10-06T06:38:25.937Z,31.05
2022-10-06T06:39:25.938Z,31.15
2022-10-06T06:40:26.008Z,31.15
2022-10-06T06:41:25.938Z,31.15
2022-10-06T06:42:25.937Z,31.05
2022-10-06T06:43:26.288Z,31.15
2022-10-06T06:44:25.939Z,31.15
2022-10-06T06:45:25.935Z,31.15
2022-10-06T06:46:26.077Z,31.05
2022-10-06T06:47:26.770Z,31.05
2022-10-06T06:48:26.048Z,31.15
2022-10-06T06:49:25.936Z,31.15
2022-10-06T06:50:26.115Z,31.05
2022-10-06T06:51:25.937Z,31.05
2022-10-06T06:52:25.938Z,31.05
2022-10-06T06:53:25.934Z,31.05
2022-10-06T06:54:25.936Z,30.95
2022-10-06T06:55:25.935Z,31.15
2022-10-06T06:56:25.936Z,31.24
2022-10-06T06:57:25.935Z,31.05
2022-10-06T06:58:26.294Z,31.05
2022-10-06T06:59:25.936Z,31.15
2022-10-06T07:00:25.936Z,31.05
2022-10-06T07:01:25.992Z,31.05
2022-10-06T07:02:26.010Z,31.24
2022-10-06T07:03:55.434Z,31.05
2022-10-06T07:04:25.935Z,31.15
2022-10-06T07:05:25.935Z,31.05
2022-10-06T07:06:28.071Z,31.05
2022-10-06T07:07:25.934Z,31.05
2022-10-06T07:08:26.354Z,31.05
2022-10-06T07:09:25.942Z,31.15
2022-10-06T07:10:25.935Z,31.15
2022-10-06T07:11:25.933Z,31.05
2022-10-06T07:12:25.946Z,31.15
2022-10-06T07:13:25.935Z,31.05
2022-10-06T07:14:25.934Z,31.05
2022-10-06T07:15:25.934Z,31.05
2022-10-06T07:16:25.936Z,31.15
2022-10-06T07:17:25.933Z,31.24
2022-10-06T07:18:26.392Z,31.05
2022-10-06T07:19:25.934Z,31.15
2022-10-06T07:20:25.948Z,31.15
2022-10-06T07:21:25.933Z,31.24
2022-10-06T07:22:25.933Z,31.24
2022-10-06T07:23:25.933Z,31.05
2022-10-06T07:24:25.939Z,31.05
2022-10-06T07:25:26.637Z,31.34
2022-10-06T07:26:25.934Z,31.15
2022-10-06T07:27:25.932Z,31.24
2022-10-06T07:28:25.978Z,31.24
2022-10-06T07:29:25.933Z,31.15
2022-10-06T07:30:25.933Z,31.34
2022-10-06T07:31:25.980Z,31.24
2022-10-06T07:32:25.934Z,31.24
2022-10-06T07:33:25.932Z,31.24
2022-10-06T07:34:25.953Z,31.15
2022-10-06T07:35:25.947Z,31.24
2022-10-06T07:36:25.934Z,31.44
2022-10-06T07:37:25.932Z,30.85
2022-10-06T07:38:25.949Z,31.34
2022-10-06T07:39:25.935Z,31.34
2022-10-06T07:40:25.932Z,31.34
2022-10-06T07:41:25.977Z,31.24
2022-10-06T07:42:25.931Z,31.34
2022-10-06T07:43:25.931Z,31.34
2022-10-06T07:44:25.933Z,31.34
2022-10-06T07:45:25.933Z,31.15
2022-10-06T07:46:26.055Z,32.21
2022-10-06T07:47:25.931Z,31.44
2022-10-06T07:48:25.933Z,31.44
2022-10-06T07:49:25.931Z,31.34
2022-10-06T07:50:25.954Z,31.24
2022-10-06T07:51:25.931Z,31.24
2022-10-06T07:52:25.933Z,31.24
2022-10-06T07:53:25.933Z,31.24
2022-10-06T07:54:27.444Z,31.34
2022-10-06T07:55:25.932Z,31.34
2022-10-06T07:56:25.931Z,31.34
2022-10-06T07:57:25.932Z,31.34
2022-10-06T07:58:25.932Z,31.24
2022-10-06T07:59:25.930Z,31.34
2022-10-06T08:00:25.991Z,31.24
2022-10-06T08:01:26.000Z,31.34
2022-10-06T08:02:26.902Z,31.34
2022-10-06T08:03:26.040Z,31.34
2022-10-06T08:04:25.931Z,31.44
2022-10-06T08:05:25.931Z,31.53
2022-10-06T08:06:25.954Z,31.44
2022-10-06T08:07:25.929Z,31.53
2022-10-06T08:08:25.932Z,31.44
2022-10-06T08:09:25.931Z,31.44
2022-10-06T08:10:25.930Z,31.34
2022-10-06T08:11:25.933Z,31.34
2022-10-06T08:12:25.931Z,31.44
2022-10-06T08:13:25.929Z,31.44
2022-10-06T08:14:25.931Z,31.34
2022-10-06T08:15:25.929Z,31.44
2022-10-06T08:16:26.008Z,31.34
2022-10-06T08:17:25.930Z,31.44
2022-10-06T08:18:47.342Z,31.53
2022-10-06T08:19:25.930Z,31.44
2022-10-06T08:20:25.930Z,31.44
2022-10-06T08:21:25.935Z,31.53
2022-10-06T08:22:25.951Z,31.44
2022-10-06T08:23:25.933Z,31.44
2022-10-06T08:24:30.536Z,31.44
2022-10-06T08:25:25.931Z,31.63
2022-10-06T08:26:25.929Z,31.44
2022-10-06T08:27:25.931Z,31.63
2022-10-06T08:28:26.038Z,31.53
2022-10-06T08:29:25.933Z,31.63
2022-10-06T08:30:25.930Z,31.63
2022-10-06T08:31:26.056Z,31.63
2022-10-06T08:32:25.930Z,31.73
2022-10-06T08:33:25.929Z,31.63
2022-10-06T08:34:25.929Z,31.73
2022-10-06T08:35:25.930Z,31.73
2022-10-06T08:36:30.623Z,31.73
2022-10-06T08:37:25.929Z,31.53
2022-10-06T08:38:25.955Z,31.53
2022-10-06T08:39:25.928Z,31.73
2022-10-06T08:40:25.930Z,31.73
2022-10-06T08:41:25.928Z,31.44
2022-10-06T08:42:25.930Z,31.63
2022-10-06T08:43:25.927Z,31.73
2022-10-06T08:44:25.929Z,31.63
2022-10-06T08:45:25.929Z,31.92
2022-10-06T08:46:25.930Z,31.63
2022-10-06T08:47:25.928Z,31.92
2022-10-06T08:48:25.933Z,31.92
2022-10-06T08:49:25.931Z,31.92
2022-10-06T08:50:25.929Z,31.73
2022-10-06T08:51:25.928Z,32.21
2022-10-06T08:52:25.928Z,32.12
2022-10-06T08:53:25.929Z,32.12
2022-10-06T08:54:25.948Z,32.12
2022-10-06T08:55:25.929Z,32.21
2022-10-06T08:56:25.928Z,32.21
2022-10-06T08:57:25.929Z,32.31
2022-10-06T08:58:25.931Z,32.31
2022-10-06T08:59:25.928Z,32.41
2022-10-06T09:00:25.928Z,32.41
2022-10-06T09:01:25.979Z,32.31
2022-10-06T09:02:25.997Z,32.02
2022-10-06T09:03:25.930Z,32.12
2022-10-06T09:04:25.929Z,32.12
2022-10-06T09:05:25.928Z,31.92
2022-10-06T09:06:25.927Z,32.12
2022-10-06T09:07:25.928Z,32.02
2022-10-06T09:08:25.927Z,32.12
2022-10-06T09:09:25.928Z,32.31
2022-10-06T09:10:25.980Z,32.21
2022-10-06T09:11:25.928Z,32.50
2022-10-06T09:12:25.931Z,32.31
2022-10-06T09:13:25.928Z,32.31
2022-10-06T09:14:25.928Z,32.12
2022-10-06T09:15:25.928Z,32.21
2022-10-06T09:16:26.027Z,32.21
2022-10-06T09:17:25.928Z,33.96
2022-10-06T09:18:29.145Z,34.44
2022-10-06T09:19:29.956Z,33.18
2022-10-06T09:20:25.927Z,33.18
2022-10-06T09:21:25.932Z,32.79
2022-10-06T09:22:25.942Z,32.60
2022-10-06T09:23:25.929Z,32.89
2022-10-06T09:24:25.939Z,32.89
2022-10-06T09:25:25.928Z,34.74
2022-10-06T09:26:25.958Z,33.47
2022-10-06T09:27:25.932Z,33.28
2022-10-06T09:28:26.019Z,33.28
2022-10-06T09:29:25.927Z,33.18
2022-10-06T09:30:25.926Z,33.28
2022-10-06T09:31:26.035Z,33.38
2022-10-06T09:32:25.926Z,33.18
2022-10-06T09:33:25.948Z,33.09
2022-10-06T09:34:25.927Z,33.18
2022-10-06T09:35:25.926Z,33.28
2022-10-06T09:36:25.926Z,33.28
2022-10-06T09:37:25.927Z,33.18
2022-10-06T09:38:25.925Z,33.18
2022-10-06T09:39:25.928Z,33.28
2022-10-06T09:40:25.927Z,33.18
2022-10-06T09:41:25.927Z,33.18
2022-10-06T09:42:25.949Z,33.28
2022-10-06T09:43:25.929Z,33.18
2022-10-06T09:44:25.927Z,33.18
2022-10-06T09:45:26.031Z,33.28
2022-10-06T09:46:25.925Z,33.28
2022-10-06T09:47:25.930Z,33.28
2022-10-06T09:48:25.928Z,33.09
2022-10-06T09:49:25.928Z,33.38
2022-10-06T09:50:25.932Z,33.28
2022-10-06T09:51:25.927Z,33.18
2022-10-06T09:52:25.926Z,33.18
2022-10-06T09:53:25.927Z,33.18
2022-10-06T09:54:25.925Z,33.18
2022-10-06T09:55:25.926Z,33.09
2022-10-06T09:56:25.928Z,33.18
2022-10-06T09:57:25.927Z,33.18
2022-10-06T09:58:25.952Z,33.18
2022-10-06T09:59:25.928Z,33.09
2022-10-06T10:00:25.927Z,33.18
2022-10-06T10:01:26.001Z,33.28
2022-10-06T10:02:26.054Z,33.18
2022-10-06T10:03:25.927Z,33.28
2022-10-06T10:04:25.926Z,33.09
2022-10-06T10:05:25.928Z,33.18
2022-10-06T10:06:25.926Z,33.28
2022-10-06T10:07:25.927Z,33.28
2022-10-06T10:08:26.082Z,33.18
2022-10-06T10:09:25.930Z,33.28
2022-10-06T10:10:25.928Z,33.18
2022-10-06T10:11:25.927Z,33.18
2022-10-06T10:12:25.931Z,33.18
2022-10-06T10:13:25.930Z,33.18
2022-10-06T10:14:25.949Z,33.38
2022-10-06T10:15:25.928Z,33.28
2022-10-06T10:16:26.033Z,33.18
2022-10-06T10:17:25.927Z,33.38
2022-10-06T10:18:25.926Z,33.09
2022-10-06T10:19:25.929Z,33.18
2022-10-06T10:20:25.927Z,33.28
2022-10-06T10:21:25.932Z,33.18
2022-10-06T10:22:25.926Z,33.18
2022-10-06T10:23:30.883Z,33.18
2022-10-06T10:24:25.927Z,33.28
2022-10-06T10:25:25.928Z,33.28
2022-10-06T10:26:25.927Z,33.47
2022-10-06T10:27:25.928Z,33.28
2022-10-06T10:28:25.976Z,33.09
2022-10-06T10:29:29.293Z,33.28
2022-10-06T10:30:25.947Z,33.28
2022-10-06T10:31:25.997Z,33.18
2022-10-06T10:32:25.927Z,33.28
2022-10-06T10:33:26.575Z,33.28
2022-10-06T10:34:25.926Z,33.18
2022-10-06T10:35:25.929Z,33.18
2022-10-06T10:36:25.939Z,33.76
2022-10-06T10:37:25.929Z,33.09
2022-10-06T10:38:25.926Z,32.99
2022-10-06T10:39:25.928Z,32.99
2022-10-06T10:40:25.926Z,33.18
2022-10-06T10:41:25.929Z,33.57
2022-10-06T10:42:25.927Z,33.28
2022-10-06T10:43:25.927Z,33.57
2022-10-06T10:44:25.927Z,33.67
2022-10-06T10:45:25.929Z,33.09
2022-10-06T10:46:26.012Z,33.18
2022-10-06T10:47:25.947Z,33.38
2022-10-06T10:48:25.927Z,32.89
2022-10-06T10:49:25.929Z,33.18
2022-10-06T10:50:25.929Z,33.28
2022-10-06T10:51:25.928Z,33.18
2022-10-06T10:52:25.927Z,33.47
2022-10-06T10:53:25.931Z,32.79
2022-10-06T10:54:25.927Z,33.28
2022-10-06T10:55:25.930Z,32.70
2022-10-06T10:56:25.931Z,32.89
2022-10-06T10:57:25.943Z,33.09
2022-10-06T10:58:25.928Z,32.60
2022-10-06T10:59:25.928Z,33.28
2022-10-06T11:00:25.929Z,32.79
2022-10-06T11:01:25.928Z,32.89
2022-10-06T11:02:25.948Z,32.99
2022-10-06T11:03:25.929Z,32.89
2022-10-06T11:04:25.927Z,32.79
2022-10-06T11:05:28.299Z,33.28
2022-10-06T11:06:25.929Z,33.28
2022-10-06T11:07:25.931Z,32.99
2022-10-06T11:08:25.928Z,32.99
2022-10-06T11:09:25.933Z,32.89
2022-10-06T11:10:25.929Z,32.99
2022-10-06T11:11:25.928Z,33.28
2022-10-06T11:12:25.929Z,33.28
2022-10-06T11:13:25.931Z,33.28
2022-10-06T11:14:25.928Z,32.99
2022-10-06T11:15:25.929Z,33.28
2022-10-06T11:16:25.993Z,32.79
2022-10-06T11:17:25.937Z,32.70
2022-10-06T11:18:25.952Z,33.28
2022-10-06T11:19:25.928Z,33.38
2022-10-06T11:20:25.928Z,32.99
2022-10-06T11:21:25.930Z,33.18
2022-10-06T11:22:25.929Z,33.09
2022-10-06T11:23:25.930Z,33.18
2022-10-06T11:24:25.929Z,33.09
2022-10-06T11:25:26.506Z,33.09
2022-10-06T11:26:25.927Z,33.09
2022-10-06T11:27:25.929Z,33.09
2022-10-06T11:28:25.988Z,33.18
2022-10-06T11:29:25.930Z,33.18
2022-10-06T11:30:25.928Z,33.09
2022-10-06T11:31:26.015Z,33.28
2022-10-06T11:32:25.928Z,33.28
2022-10-06T11:33:25.933Z,33.28
2022-10-06T11:34:26.050Z,33.28
2022-10-06T11:35:25.930Z,33.28
2022-10-06T11:36:25.928Z,33.28
2022-10-06T11:37:25.930Z,33.28
2022-10-06T11:38:25.929Z,33.18
2022-10-06T11:39:25.931Z,33.18
2022-10-06T11:40:25.929Z,33.18
2022-10-06T11:41:25.931Z,33.18
2022-10-06T11:42:26.000Z,33.18
2022-10-06T11:43:25.930Z,33.28
2022-10-06T11:44:25.929Z,33.18
2022-10-06T11:45:25.930Z,33.09
2022-10-06T11:46:29.689Z,33.09
2022-10-06T11:47:34.836Z,33.28
2022-10-06T11:48:25.928Z,33.28
2022-10-06T11:49:25.930Z,33.28
2022-10-06T11:50:25.951Z,33.18
2022-10-06T11:51:25.931Z,33.38
2022-10-06T11:52:25.929Z,33.47
2022-10-06T11:53:25.930Z,33.38
2022-10-06T11:54:25.930Z,33.67
2022-10-06T11:55:25.936Z,35.80
2022-10-06T11:56:25.929Z,34.93
2022-10-06T11:57:30.646Z,34.06
2022-10-06T11:58:42.633Z,33.76
2022-10-06T11:59:25.929Z,34.25
2022-10-06T12:00:25.929Z,34.35
2022-10-06T12:01:25.931Z,34.25
2022-10-06T12:02:26.123Z,34.25
2022-10-06T12:03:26.040Z,34.06
2022-10-06T12:04:25.928Z,34.06
2022-10-06T12:05:55.261Z,33.86
2022-10-06T12:06:25.952Z,33.96
2022-10-06T12:07:25.930Z,34.06
2022-10-06T12:08:25.928Z,34.25
2022-10-06T12:09:25.935Z,34.16
2022-10-06T12:10:25.929Z,34.16
2022-10-06T12:11:25.931Z,34.16
2022-10-06T12:12:25.930Z,34.16
2022-10-06T12:14:12.467Z,34.06
2022-10-06T12:16:07.019Z,34.25
2022-10-06T12:17:25.930Z,34.35
2022-10-06T12:17:26.820Z,34.06
2022-10-06T12:18:25.928Z,34.06
2022-10-06T12:19:25.929Z,34.16
2022-10-06T12:20:25.929Z,33.98
2022-10-06T12:21:25.930Z,33.96
2022-10-06T12:22:25.953Z,33.88
2022-10-06T12:23:25.932Z,33.86
2022-10-06T12:24:25.930Z,33.98
2022-10-06T12:25:25.930Z,33.88
2022-10-06T12:26:25.928Z,33.98
2022-10-06T12:27:26.346Z,34.17
2022-10-06T12:28:26.052Z,34.85
2022-10-06T12:29:25.934Z,34.85
2022-10-06T12:30:25.930Z,34.27
2022-10-06T12:31:25.991Z,34.08
2022-10-06T12:32:25.933Z,34.08
2022-10-06T12:33:25.934Z,34.27
2022-10-06T12:34:25.929Z,34.85
2022-10-06T12:35:25.933Z,34.36
2022-10-06T12:36:25.930Z,34.17
2022-10-06T12:37:25.932Z,34.17
2022-10-06T12:38:26.075Z,34.36
2022-10-06T12:39:25.931Z,34.17
2022-10-06T12:40:25.931Z,34.17
2022-10-06T12:41:25.934Z,34.27
2022-10-06T12:42:25.930Z,34.08
2022-10-06T12:43:25.938Z,33.98
2022-10-06T12:44:25.931Z,34.17
2022-10-06T12:45:25.931Z,34.17
2022-10-06T12:46:26.039Z,34.08
2022-10-06T12:47:25.931Z,33.78
2022-10-06T12:48:25.932Z,34.08
2022-10-06T12:49:25.944Z,34.17
2022-10-06T12:50:25.930Z,34.27
2022-10-06T12:51:26.018Z,34.27
2022-10-06T12:52:25.933Z,34.27
2022-10-06T12:53:25.934Z,34.27